Terminal Aerodrome Forecast
Issued by NWS Sterling, VA

Current Version | Previous Version | Text Only | Print | Product List | Glossary Off
Versions: 1 2 3 4 5 6 7 8 9 10 11 12 13 14 15 16 17 18 19 20

556
FTUS41 KLWX 050520
TAFMRB
TAF
KMRB 050520Z 0506/0606 17006KT 5SM -RA BR BKN008 OVC015
     FM050900 19005KT 2SM BR SCT003 BKN008
     FM051300 24005KT P6SM BKN030
     FM051600 30008G16KT P6SM SCT040
     FM052200 31005KT P6SM SCT200=

USA.gov is the U.S. government's official web portal to all federal, state and local government web resources and services.